sensor_id;sensor_type;location;lat;lon;timestamp;temperature;humidity
51765;DHT22;37835;53.256;6.456;2023-08-17T00:01:44;15.80;99.90
51765;DHT22;37835;53.256;6.456;2023-08-17T00:04:10;15.80;99.90
51765;DHT22;37835;53.256;6.456;2023-08-17T00:06:35;15.70;99.90
51765;DHT22;37835;53.256;6.456;2023-08-17T00:09:01;15.70;99.90
51765;DHT22;37835;53.256;6.456;2023-08-17T00:11:30;15.70;99.90
51765;DHT22;37835;53.256;6.456;2023-08-17T00:13:55;15.70;99.90
51765;DHT22;37835;53.256;6.456;2023-08-17T00:16:21;15.60;99.90
51765;DHT22;37835;53.256;6.456;2023-08-17T00:18:49;15.60;99.90
51765;DHT22;37835;53.256;6.456;2023-08-17T00:21:14;15.60;99.90
51765;DHT22;37835;53.256;6.456;2023-08-17T00:23:40;15.60;99.90
51765;DHT22;37835;53.256;6.456;2023-08-17T00:26:05;15.50;99.90
51765;DHT22;37835;53.256;6.456;2023-08-17T00:28:31;15.50;99.90
51765;DHT22;37835;53.256;6.456;2023-08-17T00:30:57;15.40;99.90
51765;DHT22;37835;53.256;6.456;2023-08-17T00:33:22;15.40;99.90
51765;DHT22;37835;53.256;6.456;2023-08-17T00:35:48;15.40;99.90
51765;DHT22;37835;53.256;6.456;2023-08-17T00:38:14;15.40;99.90
51765;DHT22;37835;53.256;6.456;2023-08-17T00:40:39;15.40;99.90
51765;DHT22;37835;53.256;6.456;2023-08-17T00:43:05;15.40;99.90
51765;DHT22;37835;53.256;6.456;2023-08-17T00:45:31;15.40;99.90
51765;DHT22;37835;53.256;6.456;2023-08-17T00:47:58;15.40;99.90
51765;DHT22;37835;53.256;6.456;2023-08-17T00:50:28;15.40;99.90
51765;DHT22;37835;53.256;6.456;2023-08-17T00:52:55;15.40;99.90
51765;DHT22;37835;53.256;6.456;2023-08-17T00:55:21;15.50;99.90
51765;DHT22;37835;53.256;6.456;2023-08-17T00:57:47;15.40;99.90
51765;DHT22;37835;53.256;6.456;2023-08-17T01:00:13;15.40;99.90
51765;DHT22;37835;53.256;6.456;2023-08-17T01:02:42;15.40;99.90
51765;DHT22;37835;53.256;6.456;2023-08-17T01:05:08;15.40;99.90
51765;DHT22;37835;53.256;6.456;2023-08-17T01:07:34;15.40;99.90
51765;DHT22;37835;53.256;6.456;2023-08-17T01:10:01;15.40;99.90
51765;DHT22;37835;53.256;6.456;2023-08-17T01:12:31;15.40;99.90
51765;DHT22;37835;53.256;6.456;2023-08-17T01:17:35;15.30;99.90
51765;DHT22;37835;53.256;6.456;2023-08-17T01:20:02;15.30;99.90
51765;DHT22;37835;53.256;6.456;2023-08-17T01:22:30;15.20;99.90
51765;DHT22;37835;53.256;6.456;2023-08-17T01:24:58;15.20;99.90
51765;DHT22;37835;53.256;6.456;2023-08-17T01:27:24;15.20;99.90
51765;DHT22;37835;53.256;6.456;2023-08-17T01:29:51;15.20;99.90
51765;DHT22;37835;53.256;6.456;2023-08-17T01:32:27;15.20;99.90
51765;DHT22;37835;53.256;6.456;2023-08-17T01:35:02;15.20;99.90
51765;DHT22;37835;53.256;6.456;2023-08-17T01:37:31;15.10;99.90
51765;DHT22;37835;53.256;6.456;2023-08-17T01:39:59;15.10;99.90
51765;DHT22;37835;53.256;6.456;2023-08-17T01:42:25;15.10;99.90
51765;DHT22;37835;53.256;6.456;2023-08-17T01:44:51;15.00;99.90
51765;DHT22;37835;53.256;6.456;2023-08-17T01:47:23;15.00;99.90
51765;DHT22;37835;53.256;6.456;2023-08-17T01:49:50;14.90;99.90
51765;DHT22;37835;53.256;6.456;2023-08-17T01:52:15;14.90;99.90
51765;DHT22;37835;53.256;6.456;2023-08-17T01:54:41;14.90;99.90
51765;DHT22;37835;53.256;6.456;2023-08-17T01:57:06;14.90;99.90
51765;DHT22;37835;53.256;6.456;2023-08-17T01:59:32;14.90;99.90
51765;DHT22;37835;53.256;6.456;2023-08-17T02:01:57;14.80;99.90
51765;DHT22;37835;53.256;6.456;2023-08-17T02:04:23;14.80;99.90
51765;DHT22;37835;53.256;6.456;2023-08-17T02:06:49;14.70;99.90
51765;DHT22;37835;53.256;6.456;2023-08-17T02:09:15;14.70;99.90
51765;DHT22;37835;53.256;6.456;2023-08-17T02:11:40;14.70;99.90
51765;DHT22;37835;53.256;6.456;2023-08-17T02:14:06;14.70;99.90
51765;DHT22;37835;53.256;6.456;2023-08-17T02:16:31;14.70;99.90
51765;DHT22;37835;53.256;6.456;2023-08-17T02:18:57;14.70;99.90
51765;DHT22;37835;53.256;6.456;2023-08-17T02:21:22;14.70;99.90
51765;DHT22;37835;53.256;6.456;2023-08-17T02:23:48;14.70;99.90
51765;DHT22;37835;53.256;6.456;2023-08-17T02:26:13;14.70;99.90
51765;DHT22;37835;53.256;6.456;2023-08-17T02:28:39;14.70;99.90
51765;DHT22;37835;53.256;6.456;2023-08-17T02:31:05;14.70;99.90
51765;DHT22;37835;53.256;6.456;2023-08-17T02:33:31;14.70;99.90
51765;DHT22;37835;53.256;6.456;2023-08-17T02:35:59;14.60;99.90
51765;DHT22;37835;53.256;6.456;2023-08-17T02:38:24;14.70;99.90
51765;DHT22;37835;53.256;6.456;2023-08-17T02:40:50;14.60;99.90
51765;DHT22;37835;53.256;6.456;2023-08-17T02:43:16;14.60;99.90
51765;DHT22;37835;53.256;6.456;2023-08-17T02:45:41;14.70;99.90
51765;DHT22;37835;53.256;6.456;2023-08-17T02:48:07;14.60;99.90
51765;DHT22;37835;53.256;6.456;2023-08-17T02:50:33;14.20;99.90
51765;DHT22;37835;53.256;6.456;2023-08-17T02:52:58;14.70;99.90
51765;DHT22;37835;53.256;6.456;2023-08-17T02:55:25;14.60;99.90
51765;DHT22;37835;53.256;6.456;2023-08-17T02:57:50;14.60;99.90
51765;DHT22;37835;53.256;6.456;2023-08-17T03:00:16;14.60;99.90
51765;DHT22;37835;53.256;6.456;2023-08-17T03:02:41;14.60;99.90
51765;DHT22;37835;53.256;6.456;2023-08-17T03:05:07;14.50;99.90
51765;DHT22;37835;53.256;6.456;2023-08-17T03:07:33;14.50;99.90
51765;DHT22;37835;53.256;6.456;2023-08-17T03:09:58;14.50;99.90
51765;DHT22;37835;53.256;6.456;2023-08-17T03:12:24;14.60;99.90
51765;DHT22;37835;53.256;6.456;2023-08-17T03:14:50;14.50;99.90
51765;DHT22;37835;53.256;6.456;2023-08-17T03:17:15;14.50;99.90
51765;DHT22;37835;53.256;6.456;2023-08-17T03:19:41;14.50;99.90
51765;DHT22;37835;53.256;6.456;2023-08-17T03:22:06;14.60;99.90
51765;DHT22;37835;53.256;6.456;2023-08-17T03:24:32;14.60;99.90
51765;DHT22;37835;53.256;6.456;2023-08-17T03:26:57;14.50;99.90
51765;DHT22;37835;53.256;6.456;2023-08-17T03:29:23;14.60;99.90
51765;DHT22;37835;53.256;6.456;2023-08-17T03:31:49;14.50;99.90
51765;DHT22;37835;53.256;6.456;2023-08-17T03:34:15;14.50;99.90
51765;DHT22;37835;53.256;6.456;2023-08-17T03:36:40;14.50;99.90
51765;DHT22;37835;53.256;6.456;2023-08-17T03:39:06;14.50;99.90
51765;DHT22;37835;53.256;6.456;2023-08-17T03:41:32;14.50;99.90
51765;DHT22;37835;53.256;6.456;2023-08-17T03:43:58;14.50;99.90
51765;DHT22;37835;53.256;6.456;2023-08-17T03:46:23;14.50;99.90
51765;DHT22;37835;53.256;6.456;2023-08-17T03:48:49;14.50;99.90
51765;DHT22;37835;53.256;6.456;2023-08-17T03:51:15;14.50;99.90
51765;DHT22;37835;53.256;6.456;2023-08-17T03:53:40;14.40;99.90
51765;DHT22;37835;53.256;6.456;2023-08-17T03:56:06;14.40;99.90
51765;DHT22;37835;53.256;6.456;2023-08-17T03:58:31;14.40;99.90
51765;DHT22;37835;53.256;6.456;2023-08-17T04:01:00;14.30;99.90
51765;DHT22;37835;53.256;6.456;2023-08-17T04:03:26;14.30;99.90
51765;DHT22;37835;53.256;6.456;2023-08-17T04:05:51;14.30;99.90
51765;DHT22;37835;53.256;6.456;2023-08-17T04:08:17;14.40;99.90
51765;DHT22;37835;53.256;6.456;2023-08-17T04:10:42;14.30;99.90
51765;DHT22;37835;53.256;6.456;2023-08-17T04:13:08;14.40;99.90
51765;DHT22;37835;53.256;6.456;2023-08-17T04:15:34;14.30;99.90
51765;DHT22;37835;53.256;6.456;2023-08-17T04:17:59;14.30;99.90
51765;DHT22;37835;53.256;6.456;2023-08-17T04:20:25;14.30;99.90
51765;DHT22;37835;53.256;6.456;2023-08-17T04:22:51;14.40;99.90
51765;DHT22;37835;53.256;6.456;2023-08-17T04:25:16;14.40;99.90
51765;DHT22;37835;53.256;6.456;2023-08-17T04:27:42;14.40;99.90
51765;DHT22;37835;53.256;6.456;2023-08-17T04:30:09;14.40;99.90
51765;DHT22;37835;53.256;6.456;2023-08-17T04:32:34;14.40;99.90
51765;DHT22;37835;53.256;6.456;2023-08-17T04:35:00;14.40;99.90
51765;DHT22;37835;53.256;6.456;2023-08-17T04:37:25;14.40;99.90
51765;DHT22;37835;53.256;6.456;2023-08-17T04:39:53;14.40;99.90
51765;DHT22;37835;53.256;6.456;2023-08-17T04:42:18;14.40;99.90
51765;DHT22;37835;53.256;6.456;2023-08-17T04:44:45;14.50;99.90
51765;DHT22;37835;53.256;6.456;2023-08-17T04:47:12;14.40;99.90
51765;DHT22;37835;53.256;6.456;2023-08-17T04:49:38;14.50;99.90
51765;DHT22;37835;53.256;6.456;2023-08-17T04:52:04;14.50;99.90
51765;DHT22;37835;53.256;6.456;2023-08-17T04:54:29;14.50;99.90
51765;DHT22;37835;53.256;6.456;2023-08-17T04:56:55;14.40;99.90
51765;DHT22;37835;53.256;6.456;2023-08-17T04:59:21;14.40;99.90
51765;DHT22;37835;53.256;6.456;2023-08-17T05:01:46;14.50;99.90
51765;DHT22;37835;53.256;6.456;2023-08-17T05:04:12;14.50;99.90
51765;DHT22;37835;53.256;6.456;2023-08-17T05:06:37;14.50;99.90
51765;DHT22;37835;53.256;6.456;2023-08-17T05:09:04;14.50;99.90
51765;DHT22;37835;53.256;6.456;2023-08-17T05:11:30;14.50;99.90
51765;DHT22;37835;53.256;6.456;2023-08-17T05:13:56;14.50;99.90
51765;DHT22;37835;53.256;6.456;2023-08-17T05:16:22;14.50;99.90
51765;DHT22;37835;53.256;6.456;2023-08-17T05:18:47;14.50;99.90
51765;DHT22;37835;53.256;6.456;2023-08-17T05:21:13;14.60;99.90
51765;DHT22;37835;53.256;6.456;2023-08-17T05:23:39;14.60;99.90
51765;DHT22;37835;53.256;6.456;2023-08-17T05:26:04;14.60;99.90
51765;DHT22;37835;53.256;6.456;2023-08-17T05:28:30;14.70;99.90
51765;DHT22;37835;53.256;6.456;2023-08-17T05:30:55;14.70;99.90
51765;DHT22;37835;53.256;6.456;2023-08-17T05:33:21;14.70;99.90
51765;DHT22;37835;53.256;6.456;2023-08-17T05:35:53;14.80;99.90
51765;DHT22;37835;53.256;6.456;2023-08-17T05:38:18;14.80;99.90
51765;DHT22;37835;53.256;6.456;2023-08-17T05:40:44;14.90;99.90
51765;DHT22;37835;53.256;6.456;2023-08-17T05:43:11;14.90;99.90
51765;DHT22;37835;53.256;6.456;2023-08-17T05:45:36;15.00;99.90
51765;DHT22;37835;53.256;6.456;2023-08-17T05:48:02;15.00;99.90
51765;DHT22;37835;53.256;6.456;2023-08-17T05:50:28;15.10;99.90
51765;DHT22;37835;53.256;6.456;2023-08-17T05:52:54;15.20;99.90
51765;DHT22;37835;53.256;6.456;2023-08-17T05:55:20;15.20;99.90
51765;DHT22;37835;53.256;6.456;2023-08-17T05:57:46;15.30;99.90
51765;DHT22;37835;53.256;6.456;2023-08-17T06:00:12;15.40;99.90
51765;DHT22;37835;53.256;6.456;2023-08-17T06:02:38;15.40;99.90
51765;DHT22;37835;53.256;6.456;2023-08-17T06:05:04;15.60;99.90
51765;DHT22;37835;53.256;6.456;2023-08-17T06:07:29;15.60;99.90
51765;DHT22;37835;53.256;6.456;2023-08-17T06:09:55;15.70;99.90
51765;DHT22;37835;53.256;6.456;2023-08-17T06:12:20;15.70;99.90
51765;DHT22;37835;53.256;6.456;2023-08-17T06:14:46;15.80;99.90
51765;DHT22;37835;53.256;6.456;2023-08-17T06:17:12;15.90;99.90
51765;DHT22;37835;53.256;6.456;2023-08-17T06:19:37;16.00;99.90
51765;DHT22;37835;53.256;6.456;2023-08-17T06:22:05;16.00;99.90
51765;DHT22;37835;53.256;6.456;2023-08-17T06:24:30;16.10;99.90
51765;DHT22;37835;53.256;6.456;2023-08-17T06:26:56;16.20;99.90
51765;DHT22;37835;53.256;6.456;2023-08-17T06:29:21;16.30;99.90
51765;DHT22;37835;53.256;6.456;2023-08-17T06:31:47;16.40;99.90
51765;DHT22;37835;53.256;6.456;2023-08-17T06:34:12;16.50;99.90
51765;DHT22;37835;53.256;6.456;2023-08-17T06:36:38;16.50;99.90
51765;DHT22;37835;53.256;6.456;2023-08-17T06:39:05;16.60;99.90
51765;DHT22;37835;53.256;6.456;2023-08-17T06:41:30;16.70;99.90
51765;DHT22;37835;53.256;6.456;2023-08-17T06:43:56;16.80;99.90
51765;DHT22;37835;53.256;6.456;2023-08-17T06:46:21;16.90;99.90
51765;DHT22;37835;53.256;6.456;2023-08-17T06:48:47;16.90;99.90
51765;DHT22;37835;53.256;6.456;2023-08-17T06:51:12;17.00;99.90
51765;DHT22;37835;53.256;6.456;2023-08-17T06:53:38;17.00;99.90
51765;DHT22;37835;53.256;6.456;2023-08-17T06:56:04;17.10;99.90
51765;DHT22;37835;53.256;6.456;2023-08-17T06:58:29;17.10;99.90
51765;DHT22;37835;53.256;6.456;2023-08-17T07:00:55;17.20;99.90
51765;DHT22;37835;53.256;6.456;2023-08-17T07:03:21;17.20;99.90
51765;DHT22;37835;53.256;6.456;2023-08-17T07:05:46;17.30;99.90
51765;DHT22;37835;53.256;6.456;2023-08-17T07:08:12;17.30;99.90
51765;DHT22;37835;53.256;6.456;2023-08-17T07:10:38;17.40;99.90
51765;DHT22;37835;53.256;6.456;2023-08-17T07:13:04;17.40;99.90
51765;DHT22;37835;53.256;6.456;2023-08-17T07:15:31;17.50;99.90
51765;DHT22;37835;53.256;6.456;2023-08-17T07:17:56;17.50;99.90
51765;DHT22;37835;53.256;6.456;2023-08-17T07:20:22;17.50;99.90
51765;DHT22;37835;53.256;6.456;2023-08-17T07:22:47;17.50;99.90
51765;DHT22;37835;53.256;6.456;2023-08-17T07:25:13;17.40;99.90
51765;DHT22;37835;53.256;6.456;2023-08-17T07:27:39;17.40;99.90
51765;DHT22;37835;53.256;6.456;2023-08-17T07:30:05;17.40;99.90
51765;DHT22;37835;53.256;6.456;2023-08-17T07:32:31;17.40;99.90
51765;DHT22;37835;53.256;6.456;2023-08-17T07:34:56;17.40;99.90
51765;DHT22;37835;53.256;6.456;2023-08-17T07:37:22;17.40;99.90
51765;DHT22;37835;53.256;6.456;2023-08-17T07:39:47;17.50;99.90
51765;DHT22;37835;53.256;6.456;2023-08-17T07:42:13;17.60;99.90
51765;DHT22;37835;53.256;6.456;2023-08-17T07:44:39;17.60;99.90
51765;DHT22;37835;53.256;6.456;2023-08-17T07:47:05;17.80;99.90
51765;DHT22;37835;53.256;6.456;2023-08-17T07:49:31;17.70;99.90
51765;DHT22;37835;53.256;6.456;2023-08-17T07:51:56;17.70;99.90
51765;DHT22;37835;53.256;6.456;2023-08-17T07:54:22;17.70;99.90
51765;DHT22;37835;53.256;6.456;2023-08-17T07:56:48;17.70;99.90
51765;DHT22;37835;53.256;6.456;2023-08-17T07:59:14;17.70;99.90
51765;DHT22;37835;53.256;6.456;2023-08-17T08:01:39;17.70;99.90
51765;DHT22;37835;53.256;6.456;2023-08-17T08:04:05;17.70;99.90
51765;DHT22;37835;53.256;6.456;2023-08-17T08:06:32;17.80;99.90
51765;DHT22;37835;53.256;6.456;2023-08-17T08:08:58;17.80;99.90
51765;DHT22;37835;53.256;6.456;2023-08-17T08:11:25;17.80;99.90
51765;DHT22;37835;53.256;6.456;2023-08-17T08:13:52;17.80;99.90
51765;DHT22;37835;53.256;6.456;2023-08-17T08:16:18;17.90;99.90
51765;DHT22;37835;53.256;6.456;2023-08-17T08:18:43;18.00;99.90
51765;DHT22;37835;53.256;6.456;2023-08-17T08:21:09;17.90;99.90
51765;DHT22;37835;53.256;6.456;2023-08-17T08:23:35;18.00;99.90
51765;DHT22;37835;53.256;6.456;2023-08-17T08:26:00;18.00;99.90
51765;DHT22;37835;53.256;6.456;2023-08-17T08:28:26;18.00;99.90
51765;DHT22;37835;53.256;6.456;2023-08-17T08:30:52;18.00;99.90
51765;DHT22;37835;53.256;6.456;2023-08-17T08:33:17;18.10;99.90
51765;DHT22;37835;53.256;6.456;2023-08-17T08:35:43;18.20;99.90
51765;DHT22;37835;53.256;6.456;2023-08-17T08:38:09;18.20;99.90
51765;DHT22;37835;53.256;6.456;2023-08-17T08:40:37;18.40;99.90
51765;DHT22;37835;53.256;6.456;2023-08-17T08:43:03;18.30;99.90
51765;DHT22;37835;53.256;6.456;2023-08-17T08:45:29;18.30;99.90
51765;DHT22;37835;53.256;6.456;2023-08-17T08:47:56;18.40;99.90
51765;DHT22;37835;53.256;6.456;2023-08-17T08:50:25;18.50;99.90
51765;DHT22;37835;53.256;6.456;2023-08-17T08:53:00;18.60;99.90
51765;DHT22;37835;53.256;6.456;2023-08-17T08:55:37;18.70;99.90
51765;DHT22;37835;53.256;6.456;2023-08-17T08:58:04;18.70;99.90
51765;DHT22;37835;53.256;6.456;2023-08-17T09:00:30;18.80;99.90
51765;DHT22;37835;53.256;6.456;2023-08-17T09:02:55;18.90;99.90
51765;DHT22;37835;53.256;6.456;2023-08-17T09:05:22;18.90;99.90
51765;DHT22;37835;53.256;6.456;2023-08-17T09:07:48;18.90;99.90
51765;DHT22;37835;53.256;6.456;2023-08-17T09:10:15;18.90;99.90
51765;DHT22;37835;53.256;6.456;2023-08-17T09:12:43;18.90;99.90
51765;DHT22;37835;53.256;6.456;2023-08-17T09:15:09;18.90;99.90
51765;DHT22;37835;53.256;6.456;2023-08-17T09:17:35;18.90;99.90
51765;DHT22;37835;53.256;6.456;2023-08-17T09:20:00;18.90;99.90
51765;DHT22;37835;53.256;6.456;2023-08-17T09:22:41;18.90;99.90
51765;DHT22;37835;53.256;6.456;2023-08-17T09:25:09;18.90;99.90
51765;DHT22;37835;53.256;6.456;2023-08-17T09:27:36;18.90;99.90
51765;DHT22;37835;53.256;6.456;2023-08-17T09:30:09;19.00;99.90
51765;DHT22;37835;53.256;6.456;2023-08-17T09:32:35;19.00;99.90
51765;DHT22;37835;53.256;6.456;2023-08-17T09:35:04;19.10;99.90
51765;DHT22;37835;53.256;6.456;2023-08-17T09:37:33;19.10;99.90
51765;DHT22;37835;53.256;6.456;2023-08-17T09:39:59;19.20;99.90
51765;DHT22;37835;53.256;6.456;2023-08-17T09:42:25;19.30;99.90
51765;DHT22;37835;53.256;6.456;2023-08-17T09:44:53;19.40;99.90
51765;DHT22;37835;53.256;6.456;2023-08-17T09:47:19;19.40;99.90
51765;DHT22;37835;53.256;6.456;2023-08-17T09:49:53;19.50;99.90
51765;DHT22;37835;53.256;6.456;2023-08-17T09:52:20;19.50;99.90
51765;DHT22;37835;53.256;6.456;2023-08-17T09:54:46;19.60;99.90
51765;DHT22;37835;53.256;6.456;2023-08-17T09:57:15;19.60;99.90
51765;DHT22;37835;53.256;6.456;2023-08-17T09:59:41;19.70;99.90
51765;DHT22;37835;53.256;6.456;2023-08-17T10:02:17;19.70;99.90
51765;DHT22;37835;53.256;6.456;2023-08-17T10:04:49;19.70;99.90
51765;DHT22;37835;53.256;6.456;2023-08-17T10:07:18;19.80;99.90
51765;DHT22;37835;53.256;6.456;2023-08-17T10:09:47;19.80;99.90
51765;DHT22;37835;53.256;6.456;2023-08-17T10:12:16;19.90;99.90
51765;DHT22;37835;53.256;6.456;2023-08-17T10:14:49;19.90;99.90
51765;DHT22;37835;53.256;6.456;2023-08-17T10:17:26;20.00;99.90
51765;DHT22;37835;53.256;6.456;2023-08-17T10:19:58;20.10;99.90
51765;DHT22;37835;53.256;6.456;2023-08-17T10:22:48;20.20;99.90
51765;DHT22;37835;53.256;6.456;2023-08-17T10:25:17;20.10;99.90
51765;DHT22;37835;53.256;6.456;2023-08-17T10:27:43;20.20;99.90
51765;DHT22;37835;53.256;6.456;2023-08-17T10:30:10;20.30;99.90
51765;DHT22;37835;53.256;6.456;2023-08-17T10:32:36;20.20;99.90
51765;DHT22;37835;53.256;6.456;2023-08-17T10:35:03;20.20;99.90
51765;DHT22;37835;53.256;6.456;2023-08-17T10:37:30;20.30;99.90
51765;DHT22;37835;53.256;6.456;2023-08-17T10:39:56;20.30;99.90
51765;DHT22;37835;53.256;6.456;2023-08-17T10:42:33;20.30;99.90
51765;DHT22;37835;53.256;6.456;2023-08-17T10:45:00;20.30;99.90
51765;DHT22;37835;53.256;6.456;2023-08-17T10:47:32;20.30;99.90
51765;DHT22;37835;53.256;6.456;2023-08-17T10:50:04;20.30;99.90
51765;DHT22;37835;53.256;6.456;2023-08-17T10:52:35;20.30;99.90
51765;DHT22;37835;53.256;6.456;2023-08-17T10:55:05;20.20;99.90
51765;DHT22;37835;53.256;6.456;2023-08-17T10:57:34;20.20;99.90
51765;DHT22;37835;53.256;6.456;2023-08-17T11:00:19;20.30;99.90
51765;DHT22;37835;53.256;6.456;2023-08-17T11:02:59;20.30;99.90
51765;DHT22;37835;53.256;6.456;2023-08-17T11:08:08;20.30;99.90
51765;DHT22;37835;53.256;6.456;2023-08-17T11:10:39;20.30;99.90
51765;DHT22;37835;53.256;6.456;2023-08-17T11:13:05;20.30;99.90
51765;DHT22;37835;53.256;6.456;2023-08-17T11:18:05;20.40;99.90
51765;DHT22;37835;53.256;6.456;2023-08-17T11:20:31;20.50;99.90
51765;DHT22;37835;53.256;6.456;2023-08-17T11:22:58;20.50;99.90
51765;DHT22;37835;53.256;6.456;2023-08-17T11:25:25;20.60;99.90
51765;DHT22;37835;53.256;6.456;2023-08-17T11:27:52;20.60;99.90
51765;DHT22;37835;53.256;6.456;2023-08-17T11:30:17;20.80;99.90
51765;DHT22;37835;53.256;6.456;2023-08-17T11:32:43;20.90;99.90
51765;DHT22;37835;53.256;6.456;2023-08-17T11:35:09;21.00;99.90
51765;DHT22;37835;53.256;6.456;2023-08-17T11:37:34;21.00;99.90
51765;DHT22;37835;53.256;6.456;2023-08-17T11:40:00;21.10;99.90
51765;DHT22;37835;53.256;6.456;2023-08-17T11:42:25;21.00;99.90
51765;DHT22;37835;53.256;6.456;2023-08-17T11:44:51;21.00;99.90
51765;DHT22;37835;53.256;6.456;2023-08-17T11:47:16;21.00;99.90
51765;DHT22;37835;53.256;6.456;2023-08-17T11:49:42;21.00;99.90
51765;DHT22;37835;53.256;6.456;2023-08-17T11:52:11;21.00;99.90
51765;DHT22;37835;53.256;6.456;2023-08-17T11:54:40;20.90;99.90
51765;DHT22;37835;53.256;6.456;2023-08-17T11:57:06;20.90;99.90
51765;DHT22;37835;53.256;6.456;2023-08-17T11:59:31;20.90;99.90
51765;DHT22;37835;53.256;6.456;2023-08-17T12:01:59;21.00;99.90
51765;DHT22;37835;53.256;6.456;2023-08-17T12:04:25;21.00;99.90
51765;DHT22;37835;53.256;6.456;2023-08-17T12:06:51;21.00;99.90
51765;DHT22;37835;53.256;6.456;2023-08-17T12:09:18;21.00;99.90
51765;DHT22;37835;53.256;6.456;2023-08-17T12:11:45;21.00;99.90
51765;DHT22;37835;53.256;6.456;2023-08-17T12:14:12;21.10;99.90
51765;DHT22;37835;53.256;6.456;2023-08-17T12:16:48;21.10;99.90
51765;DHT22;37835;53.256;6.456;2023-08-17T12:19:18;21.20;99.90
51765;DHT22;37835;53.256;6.456;2023-08-17T12:21:45;21.20;99.90
51765;DHT22;37835;53.256;6.456;2023-08-17T12:24:10;21.20;99.90
51765;DHT22;37835;53.256;6.456;2023-08-17T12:26:46;21.20;99.90
51765;DHT22;37835;53.256;6.456;2023-08-17T12:29:12;21.30;99.90
51765;DHT22;37835;53.256;6.456;2023-08-17T12:31:38;21.30;99.90
51765;DHT22;37835;53.256;6.456;2023-08-17T12:34:04;21.40;99.90
51765;DHT22;37835;53.256;6.456;2023-08-17T12:36:32;21.30;99.90
51765;DHT22;37835;53.256;6.456;2023-08-17T12:38:57;21.40;99.90
51765;DHT22;37835;53.256;6.456;2023-08-17T12:41:23;21.30;99.90
51765;DHT22;37835;53.256;6.456;2023-08-17T12:43:49;21.40;99.90
51765;DHT22;37835;53.256;6.456;2023-08-17T12:46:14;21.40;99.90
51765;DHT22;37835;53.256;6.456;2023-08-17T12:48:40;21.40;99.90
51765;DHT22;37835;53.256;6.456;2023-08-17T12:51:06;21.40;99.90
51765;DHT22;37835;53.256;6.456;2023-08-17T12:53:31;21.40;99.90
51765;DHT22;37835;53.256;6.456;2023-08-17T12:55:57;21.40;99.90
51765;DHT22;37835;53.256;6.456;2023-08-17T12:58:23;21.40;99.90
51765;DHT22;37835;53.256;6.456;2023-08-17T13:00:49;21.40;99.90
51765;DHT22;37835;53.256;6.456;2023-08-17T13:03:17;21.30;99.90
51765;DHT22;37835;53.256;6.456;2023-08-17T13:05:43;21.20;99.90
51765;DHT22;37835;53.256;6.456;2023-08-17T13:08:08;21.20;99.90
51765;DHT22;37835;53.256;6.456;2023-08-17T13:10:34;21.20;99.90
51765;DHT22;37835;53.256;6.456;2023-08-17T13:13:00;21.10;99.90
51765;DHT22;37835;53.256;6.456;2023-08-17T13:15:26;21.20;99.90
51765;DHT22;37835;53.256;6.456;2023-08-17T13:17:51;21.20;99.90
51765;DHT22;37835;53.256;6.456;2023-08-17T13:20:17;21.10;99.90
51765;DHT22;37835;53.256;6.456;2023-08-17T13:22:43;21.10;99.90
51765;DHT22;37835;53.256;6.456;2023-08-17T13:25:08;21.10;99.90
51765;DHT22;37835;53.256;6.456;2023-08-17T13:27:34;21.10;99.90
51765;DHT22;37835;53.256;6.456;2023-08-17T13:30:00;21.00;99.90
51765;DHT22;37835;53.256;6.456;2023-08-17T13:32:27;21.00;99.90
51765;DHT22;37835;53.256;6.456;2023-08-17T13:34:53;21.00;99.90
51765;DHT22;37835;53.256;6.456;2023-08-17T13:37:19;21.00;99.90
51765;DHT22;37835;53.256;6.456;2023-08-17T13:39:46;20.90;99.90
51765;DHT22;37835;53.256;6.456;2023-08-17T13:42:11;20.90;99.90
51765;DHT22;37835;53.256;6.456;2023-08-17T13:44:38;20.90;99.90
51765;DHT22;37835;53.256;6.456;2023-08-17T13:47:03;20.80;99.90
51765;DHT22;37835;53.256;6.456;2023-08-17T13:49:29;20.70;99.90
51765;DHT22;37835;53.256;6.456;2023-08-17T13:51:54;20.70;99.90
51765;DHT22;37835;53.256;6.456;2023-08-17T13:54:24;20.60;99.90
51765;DHT22;37835;53.256;6.456;2023-08-17T13:56:50;20.60;99.90
51765;DHT22;37835;53.256;6.456;2023-08-17T13:59:16;20.60;99.90
51765;DHT22;37835;53.256;6.456;2023-08-17T14:01:42;20.20;99.90
51765;DHT22;37835;53.256;6.456;2023-08-17T14:04:07;20.50;99.90
51765;DHT22;37835;53.256;6.456;2023-08-17T14:06:37;20.40;99.90
51765;DHT22;37835;53.256;6.456;2023-08-17T14:09:04;20.40;99.90
51765;DHT22;37835;53.256;6.456;2023-08-17T14:11:33;20.40;99.90
51765;DHT22;37835;53.256;6.456;2023-08-17T14:13:58;20.40;99.90
51765;DHT22;37835;53.256;6.456;2023-08-17T14:16:24;20.40;99.90
51765;DHT22;37835;53.256;6.456;2023-08-17T14:18:49;20.40;99.90
51765;DHT22;37835;53.256;6.456;2023-08-17T14:21:15;20.40;99.90
51765;DHT22;37835;53.256;6.456;2023-08-17T14:23:41;20.40;99.90
51765;DHT22;37835;53.256;6.456;2023-08-17T14:26:06;20.30;99.90
51765;DHT22;37835;53.256;6.456;2023-08-17T14:28:32;20.30;99.90
51765;DHT22;37835;53.256;6.456;2023-08-17T14:30:57;20.20;99.90
51765;DHT22;37835;53.256;6.456;2023-08-17T14:33:23;20.10;99.90
51765;DHT22;37835;53.256;6.456;2023-08-17T14:35:49;20.10;99.90
51765;DHT22;37835;53.256;6.456;2023-08-17T14:38:15;20.10;99.90
51765;DHT22;37835;53.256;6.456;2023-08-17T14:40:45;20.00;99.90
51765;DHT22;37835;53.256;6.456;2023-08-17T14:43:12;20.00;99.90
51765;DHT22;37835;53.256;6.456;2023-08-17T14:45:39;20.00;99.90
51765;DHT22;37835;53.256;6.456;2023-08-17T14:48:06;20.00;99.90
51765;DHT22;37835;53.256;6.456;2023-08-17T14:50:36;20.00;99.90
51765;DHT22;37835;53.256;6.456;2023-08-17T14:53:05;19.90;99.90
51765;DHT22;37835;53.256;6.456;2023-08-17T14:55:33;19.90;99.90
51765;DHT22;37835;53.256;6.456;2023-08-17T14:57:59;19.90;99.90
51765;DHT22;37835;53.256;6.456;2023-08-17T15:00:25;19.90;99.90
51765;DHT22;37835;53.256;6.456;2023-08-17T15:02:53;19.80;99.90
51765;DHT22;37835;53.256;6.456;2023-08-17T15:05:18;19.90;99.90
51765;DHT22;37835;53.256;6.456;2023-08-17T15:07:44;19.90;99.90
51765;DHT22;37835;53.256;6.456;2023-08-17T15:10:10;19.90;99.90
51765;DHT22;37835;53.256;6.456;2023-08-17T15:12:35;19.90;99.90
51765;DHT22;37835;53.256;6.456;2023-08-17T15:15:01;19.90;99.90
51765;DHT22;37835;53.256;6.456;2023-08-17T15:17:27;19.90;99.90
51765;DHT22;37835;53.256;6.456;2023-08-17T15:19:53;19.90;99.90
51765;DHT22;37835;53.256;6.456;2023-08-17T15:22:18;19.90;99.90
51765;DHT22;37835;53.256;6.456;2023-08-17T15:24:45;19.90;99.90
51765;DHT22;37835;53.256;6.456;2023-08-17T15:27:12;19.90;99.90
51765;DHT22;37835;53.256;6.456;2023-08-17T15:29:37;20.00;99.90
51765;DHT22;37835;53.256;6.456;2023-08-17T15:32:05;19.80;99.90
51765;DHT22;37835;53.256;6.456;2023-08-17T15:34:30;19.80;99.90